.
WxDataArchive / Data Records for 2006-12-28
2006-12-27 December 2006 2006-12-29

Data Records for Thursday, 28 December 2006

Time	Temp	Chill	HIndex	Humid	Dewpt	 Wind 	HiWind	WindDir	Rain 	Barom 
-----	----	-----	------	-----	-----	------	------	-------	-----	----- 
00:00	36.2	36.2	36.2	74	28.7	0	2	248	0.00	30.123 
00:05	36.2	36.2	36.2	74	28.7	0	1	248	0.00	30.123 
00:10	36.0	36.0	36.0	74	28.5	0	2	248	0.00	30.123 
00:15	36.2	36.2	36.2	74	28.7	0	1	248	0.00	30.125 
00:20	36.2	36.2	36.2	74	28.7	0	1	248	0.00	30.125 
00:25	36.2	36.2	36.2	74	28.7	0	1	248	0.00	30.125 
00:30	36.2	36.2	36.2	74	28.7	0	1	248	0.00	30.127 
00:35	36.0	36.0	36.0	74	28.5	0	0	---	0.00	30.127 
00:40	36.0	36.0	36.0	74	28.5	0	1	248	0.00	30.127 
00:45	36.0	36.0	36.0	74	28.5	0	1	248	0.00	30.126 
00:50	35.9	35.9	35.9	74	28.4	0	0	---	0.00	30.126 
00:55	35.9	35.9	35.9	74	28.4	0	1	248	0.00	30.126 
01:00	35.9	35.9	35.9	74	28.4	0	1	248	0.00	30.131 
01:05	35.9	35.9	35.9	74	28.4	0	0	---	0.00	30.131 
01:10	35.9	35.9	35.9	75	28.8	0	1	248	0.00	30.131 
01:15	35.8	35.8	35.8	74	28.3	0	0	---	0.00	30.130 
01:20	35.8	35.8	35.8	74	28.3	0	1	248	0.00	30.130 
01:25	35.8	35.8	35.8	74	28.3	0	0	---	0.00	30.130 
01:30	35.8	35.8	35.8	74	28.3	0	1	248	0.00	30.130 
01:35	35.8	35.8	35.8	75	28.7	0	1	248	0.00	30.130 
01:40	35.8	35.8	35.8	75	28.7	0	1	248	0.00	30.130 
01:45	35.8	35.8	35.8	75	28.7	0	1	248	0.00	30.131 
01:50	35.6	35.6	35.6	75	28.5	0	1	248	0.00	30.131 
01:55	35.6	35.6	35.6	75	28.5	0	1	248	0.00	30.131 
02:00	35.6	35.6	35.6	75	28.5	0	1	248	0.00	30.132 
02:05	35.6	35.6	35.6	76	28.8	0	1	248	0.00	30.132 
02:10	35.6	35.6	35.6	76	28.8	0	1	248	0.00	30.132 
02:15	35.6	35.6	35.6	76	28.8	0	0	---	0.00	30.132 
02:20	35.5	35.5	35.5	76	28.7	0	1	248	0.00	30.132 
02:25	35.5	35.5	35.5	76	28.7	0	0	---	0.00	30.132 
02:30	35.5	35.5	35.5	77	29.0	0	1	248	0.00	30.134 
02:35	35.5	35.5	35.5	77	29.0	0	1	248	0.00	30.134 
02:40	35.5	35.5	35.5	77	29.0	0	0	---	0.00	30.134 
02:45	35.3	35.3	35.3	78	29.1	0	0	---	0.00	30.142 
02:50	35.3	35.3	35.3	78	29.1	0	0	---	0.00	30.142 
02:55	35.3	35.3	35.3	78	29.1	0	0	---	0.00	30.142 
03:00	35.2	35.2	35.2	79	29.4	0	0	---	0.00	30.148 
03:05	35.2	35.2	35.2	79	29.4	0	0	---	0.00	30.148 
03:10	35.2	35.2	35.2	79	29.4	0	0	---	0.00	30.148 
03:15	35.2	35.2	35.2	79	29.4	0	0	---	0.00	30.155 
03:20	35.2	35.2	35.2	79	29.4	0	1	248	0.00	30.155 
03:25	35.2	35.2	35.2	80	29.7	0	1	248	0.00	30.155 
03:30	35.0	35.0	35.0	80	29.5	0	0	---	0.00	30.158 
03:35	35.0	35.0	35.0	80	29.5	0	1	248	0.00	30.158 
03:40	35.0	35.0	35.0	80	29.5	0	1	248	0.00	30.158 
03:45	35.0	35.0	35.0	80	29.5	0	1	248	0.00	30.157 
03:50	35.0	35.0	35.0	80	29.5	0	1	248	0.00	30.157 
03:55	35.2	35.2	35.2	80	29.7	0	1	248	0.00	30.157 
04:00	35.3	35.3	35.3	80	29.8	0	1	248	0.00	30.159 
04:05	35.5	35.5	35.5	79	29.6	0	1	248	0.00	30.159 
04:10	35.5	35.5	35.5	80	30.0	0	1	248	0.00	30.159 
04:15	35.5	35.5	35.5	80	30.0	0	1	248	0.00	30.161 
04:20	35.3	35.3	35.3	80	29.8	0	1	248	0.00	30.161 
04:25	35.3	35.3	35.3	81	30.1	0	0	---	0.00	30.161 
04:30	35.2	35.2	35.2	81	30.0	0	0	---	0.00	30.165 
04:35	35.2	35.2	35.2	81	30.0	0	0	---	0.00	30.165 
04:40	35.0	35.0	35.0	81	29.8	0	0	---	0.00	30.165 
04:45	34.9	34.9	34.9	81	29.7	0	0	---	0.00	30.177 
04:50	34.9	34.9	34.9	81	29.7	0	0	---	0.00	30.177 
04:55	34.9	34.9	34.9	82	30.0	0	0	---	0.00	30.177 
05:00	34.9	34.9	34.9	81	29.7	0	0	---	0.00	30.177 
05:05	34.9	34.9	34.9	82	30.0	0	0	---	0.00	30.177 
05:10	34.9	34.9	34.9	82	30.0	0	0	---	0.00	30.177 
05:15	34.9	34.9	34.9	82	30.0	0	0	---	0.00	30.189 
05:20	34.9	34.9	34.9	82	30.0	0	0	---	0.00	30.189 
05:25	34.9	34.9	34.9	82	30.0	0	1	248	0.00	30.189 
05:30	34.9	34.9	34.9	82	30.0	0	1	248	0.00	30.185 
05:35	34.9	34.9	34.9	83	30.3	0	1	248	0.00	30.185 
05:40	34.9	34.9	34.9	82	30.0	0	1	248	0.00	30.185 
05:45	35.0	35.0	35.0	83	30.4	0	0	---	0.00	30.195 
05:50	34.9	34.9	34.9	83	30.3	0	0	---	0.00	30.195 
05:55	34.9	34.9	34.9	83	30.3	0	0	---	0.00	30.195 
06:00	34.9	34.9	34.9	83	30.3	0	0	---	0.00	30.197 
06:05	34.9	34.9	34.9	83	30.3	0	1	248	0.00	30.197 
06:10	34.9	34.9	34.9	83	30.3	0	1	248	0.00	30.197 
06:15	35.0	35.0	35.0	83	30.4	0	1	248	0.00	30.195 
06:20	35.2	35.2	35.2	82	30.3	0	1	248	0.00	30.195 
06:25	35.3	35.3	35.3	82	30.4	0	1	248	0.00	30.195 
06:30	35.3	35.3	35.3	82	30.4	0	1	248	0.00	30.199 
06:35	35.5	35.5	35.5	82	30.6	0	1	248	0.00	30.199 
06:40	35.5	35.5	35.5	82	30.6	0	1	248	0.00	30.199 
06:45	35.3	35.3	35.3	82	30.4	0	1	248	0.00	30.196 
06:50	35.5	35.5	35.5	81	30.3	0	1	248	0.00	30.196 
06:55	35.5	35.5	35.5	81	30.3	0	1	248	0.00	30.196 
07:00	35.6	35.6	35.6	81	30.4	0	1	248	0.00	30.197 
07:05	35.6	35.6	35.6	81	30.4	0	2	248	0.00	30.197 
07:10	35.8	35.8	35.8	81	30.6	0	1	248	0.00	30.197 
07:15	35.8	35.8	35.8	80	30.2	0	2	158	0.00	30.192 
07:20	35.8	35.8	35.8	81	30.6	0	1	158	0.00	30.192 
07:25	35.8	35.8	35.8	80	30.2	0	1	158	0.00	30.192 
07:30	35.8	35.8	35.8	80	30.2	1	2	158	0.00	30.191 
07:35	35.8	35.8	35.8	81	30.6	1	2	158	0.00	30.191 
07:40	35.8	35.8	35.8	81	30.6	1	3	112	0.00	30.191 
07:45	35.6	35.6	35.6	81	30.4	0	1	112	0.00	30.187 
07:50	35.6	35.6	35.6	82	30.7	0	1	112	0.00	30.187 
07:55	35.5	35.5	35.5	82	30.6	0	0	---	0.00	30.187 
08:00	35.5	35.5	35.5	82	30.6	0	1	112	0.00	30.200 
08:05	35.5	35.5	35.5	82	30.6	0	1	112	0.00	30.200 
08:10	35.5	35.5	35.5	82	30.6	0	0	---	0.00	30.200 
08:15	35.5	35.5	35.5	82	30.6	0	1	112	0.00	30.202 
08:20	35.5	35.5	35.5	83	30.9	0	1	112	0.00	30.202 
08:25	35.3	35.3	35.3	83	30.7	1	2	112	0.00	30.202 
08:30	35.5	35.5	35.5	82	30.6	1	2	112	0.00	30.193 
08:35	35.5	35.5	35.5	82	30.6	1	1	112	0.00	30.193 
08:40	35.6	35.6	35.6	81	30.4	1	2	112	0.00	30.193 
08:45	35.8	35.8	35.8	81	30.6	0	2	112	0.00	30.194 
08:50	35.9	35.9	35.9	81	30.6	1	2	112	0.00	30.194 
08:55	36.0	36.0	36.0	81	30.7	0	2	112	0.00	30.194 
09:00	36.2	36.2	36.2	80	30.6	0	1	112	0.00	30.206 
09:05	36.3	36.3	36.3	80	30.7	0	2	112	0.00	30.206 
09:10	36.6	36.6	36.6	79	30.7	0	2	112	0.00	30.206 
09:15	36.8	36.8	36.8	79	30.9	0	1	112	0.00	30.211 
09:20	36.9	36.9	36.9	78	30.7	0	1	112	0.00	30.211 
09:25	37.0	37.0	37.0	78	30.8	0	1	112	0.00	30.211 
09:30	37.0	37.0	37.0	78	30.8	0	1	112	0.00	30.226 
09:35	37.2	37.2	37.2	77	30.7	0	0	---	0.00	30.226 
09:40	37.2	37.2	37.2	77	30.7	0	0	---	0.00	30.226 
09:45	37.2	37.2	37.2	77	30.7	0	1	112	0.00	30.233 
09:50	37.3	37.3	37.3	77	30.8	0	0	---	0.00	30.233 
09:55	37.3	37.3	37.3	77	30.8	0	0	---	0.00	30.233 
10:00	37.5	37.5	37.5	77	31.0	0	1	112	0.00	30.236 
10:05	37.5	37.5	37.5	77	31.0	0	1	112	0.00	30.236 
10:10	37.6	37.6	37.6	77	31.1	0	1	112	0.00	30.236 
10:15	37.8	37.8	37.8	77	31.2	0	1	112	0.00	30.243 
10:20	37.8	37.8	37.8	77	31.2	0	2	112	0.00	30.243 
10:25	37.9	37.9	37.9	76	31.0	0	1	112	0.00	30.243 
10:30	38.2	38.2	38.2	76	31.3	0	1	112	0.00	30.243 
10:35	38.3	38.3	38.3	75	31.1	0	2	112	0.00	30.243 
10:40	38.6	38.6	38.6	74	31.0	0	2	112	0.00	30.243 
10:45	38.9	38.9	38.9	73	31.0	0	1	112	0.00	30.240 
10:50	39.3	39.3	39.3	71	30.7	1	3	112	0.00	30.240 
10:55	39.6	39.6	39.6	71	31.0	1	3	112	0.00	30.240 
11:00	39.9	39.9	39.9	70	30.9	1	3	135	0.00	30.239 
11:05	40.1	40.1	40.1	69	30.8	2	5	112	0.00	30.239 
11:10	40.2	40.2	40.2	70	31.2	1	3	112	0.00	30.239 
11:15	40.5	40.5	40.5	70	31.5	1	2	112	0.00	30.239 
11:20	40.6	40.6	40.6	69	31.2	1	4	90	0.00	30.239 
11:25	40.9	40.9	40.9	69	31.5	1	6	135	0.00	30.239 
11:30	41.2	41.2	41.2	69	31.8	1	3	135	0.00	30.233 
11:35	41.5	41.5	41.5	67	31.4	0	2	112	0.00	30.233 
11:40	41.6	41.6	41.6	67	31.5	1	4	270	0.00	30.233 
11:45	41.6	41.6	41.6	67	31.5	1	6	270	0.00	30.226 
11:50	41.8	41.8	41.8	67	31.7	1	3	112	0.00	30.226 
11:55	42.1	42.1	42.1	68	32.3	0	2	112	0.00	30.226 
12:00	42.2	42.2	42.2	65	31.3	1	5	270	0.00	30.222 
12:05	42.3	42.3	42.3	67	32.1	1	2	68	0.00	30.222 
12:10	42.5	42.5	42.5	66	32.0	1	3	68	0.00	30.222 
12:15	42.6	42.6	42.6	66	32.0	0	2	90	0.00	30.219 
12:20	42.9	42.9	42.9	66	32.3	0	2	90	0.00	30.219 
12:25	42.9	42.9	42.9	65	32.0	1	4	90	0.00	30.219 
12:30	42.9	42.9	42.9	65	32.0	1	5	112	0.00	30.209 
12:35	42.9	42.9	42.9	64	31.6	2	4	90	0.00	30.209 
12:40	43.1	43.1	43.1	63	31.4	2	5	90	0.00	30.209 
12:45	43.2	43.2	43.2	65	32.2	1	3	135	0.00	30.206 
12:50	43.3	43.3	43.3	64	32.0	1	5	270	0.00	30.206 
12:55	43.5	43.5	43.5	64	32.1	1	3	45	0.00	30.206 
13:00	43.6	43.6	43.6	63	31.8	1	5	248	0.00	30.204 
13:05	43.8	43.8	43.8	65	32.8	1	5	248	0.00	30.204 
13:10	43.8	43.8	43.8	66	33.2	2	5	112	0.00	30.204 
13:15	43.9	43.9	43.9	63	32.1	1	3	135	0.00	30.202 
13:20	44.1	44.1	44.1	62	31.9	1	6	112	0.00	30.202 
13:25	44.1	44.1	44.1	63	32.3	1	4	68	0.00	30.202 
13:30	44.2	44.2	44.2	64	32.8	1	2	68	0.00	30.196 
13:35	44.5	44.5	44.5	64	33.1	1	2	68	0.00	30.196 
13:40	44.6	44.6	44.6	63	32.8	1	2	112	0.00	30.196 
13:45	44.6	44.6	44.6	63	32.8	1	3	112	0.00	30.191 
13:50	44.8	44.8	44.8	63	33.0	1	4	90	0.00	30.191 
13:55	44.8	44.8	44.8	64	33.4	1	4	135	0.00	30.191 
14:00	45.1	45.1	45.1	62	32.9	2	4	112	0.00	30.187 
14:05	45.4	45.4	45.4	63	33.6	1	3	112	0.00	30.187 
14:10	45.5	45.5	45.5	61	32.8	1	4	112	0.00	30.187 
14:15	45.8	45.8	45.8	63	33.9	1	4	248	0.00	30.187 
14:20	46.1	46.1	46.1	64	34.6	1	3	248	0.00	30.187 
14:25	46.2	46.2	46.2	60	33.1	1	3	248	0.00	30.187 
14:30	46.2	46.2	46.2	61	33.5	2	5	90	0.00	30.189 
14:35	46.2	46.2	46.2	62	33.9	1	3	248	0.00	30.189 
14:40	46.4	46.4	46.4	62	34.1	1	2	248	0.00	30.189 
14:45	46.4	46.4	46.4	59	32.9	1	5	270	0.00	30.191 
14:50	46.5	46.5	46.5	60	33.4	1	5	270	0.00	30.191 
14:55	46.5	46.5	46.5	62	34.2	1	3	90	0.00	30.191 
15:00	46.5	46.5	46.5	61	33.8	0	2	90	0.00	30.197 
15:05	46.5	46.5	46.5	62	34.2	1	2	90	0.00	30.197 
15:10	46.5	46.5	46.5	61	33.8	1	3	112	0.00	30.197 
15:15	46.4	46.4	46.4	61	33.7	1	2	112	0.00	30.202 
15:20	46.4	46.4	46.4	60	33.3	0	2	90	0.00	30.202 
15:25	46.4	46.4	46.4	61	33.7	1	4	112	0.00	30.202 
15:30	46.5	46.5	46.5	62	34.2	0	2	158	0.00	30.205 
15:35	46.5	46.5	46.5	61	33.8	1	4	135	0.00	30.205 
15:40	46.5	46.5	46.5	61	33.8	1	3	90	0.00	30.205 
15:45	46.7	46.7	46.7	60	33.6	1	4	90	0.00	30.206 
15:50	46.7	46.7	46.7	62	34.4	1	4	112	0.00	30.206 
15:55	46.5	46.5	46.5	61	33.8	1	3	112	0.00	30.206 
16:00	46.5	46.5	46.5	61	33.8	1	4	112	0.00	30.214 
16:05	46.5	46.5	46.5	62	34.2	1	2	68	0.00	30.214 
16:10	46.4	46.4	46.4	62	34.1	1	2	158	0.00	30.214 
16:15	46.4	46.4	46.4	62	34.1	1	3	158	0.00	30.220 
16:20	46.4	46.4	46.4	62	34.1	1	4	112	0.00	30.220 
16:25	46.2	46.2	46.2	62	33.9	1	3	135	0.00	30.220 
16:30	46.0	46.0	46.0	63	34.1	1	3	135	0.00	30.226 
16:35	45.8	45.8	45.8	64	34.3	1	2	135	0.00	30.226 
16:40	45.7	45.7	45.7	64	34.2	1	2	135	0.00	30.226 
16:45	45.4	45.4	45.4	65	34.3	1	2	90	0.00	30.234 
16:50	45.2	45.2	45.2	65	34.1	0	1	90	0.00	30.234 
16:55	44.9	44.9	44.9	66	34.2	0	1	90	0.00	30.234 
17:00	44.8	44.8	44.8	67	34.5	0	1	90	0.00	30.240 
17:05	44.5	44.5	44.5	68	34.6	0	1	90	0.00	30.240 
17:10	44.2	44.2	44.2	69	34.7	0	1	90	0.00	30.240 
17:15	43.8	43.8	43.8	69	34.3	0	1	90	0.00	30.251 
17:20	43.5	43.5	43.5	70	34.4	0	0	---	0.00	30.251 
17:25	42.9	42.9	42.9	71	34.2	0	0	---	0.00	30.251 
17:30	42.6	42.6	42.6	72	34.2	0	0	---	0.00	30.253 
17:35	42.2	42.2	42.2	72	33.8	0	0	---	0.00	30.253 
17:40	41.6	41.6	41.6	73	33.6	0	1	90	0.00	30.253 
17:45	41.2	41.2	41.2	74	33.6	0	0	---	0.00	30.263 
17:50	40.9	40.9	40.9	75	33.6	0	0	---	0.00	30.263 
17:55	40.6	40.6	40.6	75	33.3	0	0	---	0.00	30.263 
18:00	40.2	40.2	40.2	76	33.3	0	0	---	0.00	30.265 
18:05	39.9	39.9	39.9	77	33.3	0	0	---	0.00	30.265 
18:10	39.6	39.6	39.6	77	33.0	0	0	---	0.00	30.265 
18:15	39.3	39.3	39.3	78	33.0	0	0	---	0.00	30.272 
18:20	39.1	39.1	39.1	79	33.1	0	0	---	0.00	30.272 
18:25	38.6	38.6	38.6	79	32.7	0	0	---	0.00	30.272 
18:30	38.3	38.3	38.3	79	32.4	0	0	---	0.00	30.278 
18:35	38.0	38.0	38.0	81	32.7	0	0	---	0.00	30.278 
18:40	37.9	37.9	37.9	81	32.6	0	0	---	0.00	30.278 
18:45	37.6	37.6	37.6	81	32.3	0	0	---	0.00	30.284 
18:50	37.3	37.3	37.3	82	32.3	0	0	---	0.00	30.284 
18:55	37.2	37.2	37.2	83	32.5	0	0	---	0.00	30.284 
19:00	37.0	37.0	37.0	83	32.3	0	0	---	0.00	30.289 
19:05	36.9	36.9	36.9	83	32.2	0	0	---	0.00	30.289 
19:10	36.8	36.8	36.8	83	32.1	0	0	---	0.00	30.289 
19:15	36.5	36.5	36.5	84	32.1	0	0	---	0.00	30.291 
19:20	36.3	36.3	36.3	84	31.9	0	0	---	0.00	30.291 
19:25	36.3	36.3	36.3	85	32.2	0	0	---	0.00	30.291 
19:30	36.2	36.2	36.2	85	32.1	0	0	---	0.00	30.296 
19:35	36.0	36.0	36.0	85	31.9	0	0	---	0.00	30.296 
19:40	35.9	35.9	35.9	85	31.8	0	0	---	0.00	30.296 
19:45	35.8	35.8	35.8	85	31.7	0	0	---	0.00	30.305 
19:50	35.6	35.6	35.6	86	31.8	0	0	---	0.00	30.305 
19:55	35.5	35.5	35.5	86	31.7	0	0	---	0.00	30.305 
20:00	35.2	35.2	35.2	86	31.4	0	0	---	0.00	30.314 
20:05	34.9	34.9	34.9	87	31.4	0	0	---	0.00	30.314 
20:10	34.7	34.7	34.7	87	31.2	0	0	---	0.00	30.314 
20:15	34.6	34.6	34.6	88	31.4	0	0	---	0.00	30.316 
20:20	34.4	34.4	34.4	88	31.2	0	0	---	0.00	30.316 
20:25	34.1	34.1	34.1	88	30.9	0	0	---	0.00	30.316 
20:30	34.0	34.0	34.0	88	30.8	0	0	---	0.00	30.319 
20:35	33.8	33.8	33.8	89	30.9	0	0	---	0.00	30.319 
20:40	33.7	33.7	33.7	90	31.1	0	0	---	0.00	30.319 
20:45	33.5	33.5	33.5	90	30.9	0	0	---	0.00	30.322 
20:50	33.5	33.5	33.5	90	30.9	0	0	---	0.00	30.322 
20:55	33.5	33.5	33.5	91	31.2	0	0	---	0.00	30.322 
21:00	33.5	33.5	33.5	91	31.2	0	0	---	0.00	30.323 
21:05	33.5	33.5	33.5	91	31.2	0	0	---	0.00	30.323 
21:10	33.4	33.4	33.4	91	31.1	0	0	---	0.00	30.323 
21:15	33.2	33.2	33.2	91	30.9	0	0	---	0.00	30.325 
21:20	33.2	33.2	33.2	92	31.1	0	0	---	0.00	30.325 
21:25	33.1	33.1	33.1	92	31.0	0	0	---	0.00	30.325 
21:30	33.1	33.1	33.1	92	31.0	0	0	---	0.00	30.328 
21:35	32.9	32.9	32.9	92	30.8	0	0	---	0.00	30.328 
21:40	32.8	32.8	32.8	92	30.7	0	0	---	0.00	30.328 
21:45	32.7	32.7	32.7	92	30.6	0	0	---	0.00	30.328 
21:50	32.7	32.7	32.7	92	30.6	0	0	---	0.00	30.328 
21:55	32.7	32.7	32.7	92	30.6	0	0	---	0.00	30.328 
22:00	32.7	32.7	32.7	92	30.6	0	0	---	0.00	30.327 
22:05	32.5	32.5	32.5	92	30.4	0	0	---	0.00	30.327 
22:10	32.7	32.7	32.7	93	30.9	0	0	---	0.00	30.327 
22:15	32.8	32.8	32.8	93	31.0	0	1	90	0.00	30.323 
22:20	32.9	32.9	32.9	93	31.1	0	1	90	0.00	30.323 
22:25	33.4	33.4	33.4	93	31.6	0	1	90	0.00	30.323 
22:30	33.8	33.8	33.8	93	32.0	0	1	90	0.00	30.328 
22:35	34.1	34.1	34.1	92	32.0	0	1	90	0.00	30.328 
22:40	34.4	34.4	34.4	92	32.3	0	1	90	0.00	30.328 
22:45	34.7	34.7	34.7	91	32.3	0	2	90	0.00	30.333 
22:50	35.0	35.0	35.0	89	32.1	0	1	90	0.00	30.333 
22:55	35.3	35.3	35.3	88	32.1	0	2	90	0.00	30.333 
23:00	35.6	35.6	35.6	87	32.1	0	1	90	0.00	30.333 
23:05	35.8	35.8	35.8	86	32.0	0	1	90	0.00	30.333 
23:10	35.9	35.9	35.9	86	32.1	0	1	90	0.00	30.333 
23:15	36.0	36.0	36.0	86	32.2	0	1	90	0.00	30.334 
23:20	36.0	36.0	36.0	86	32.2	0	1	90	0.00	30.334 
23:25	36.2	36.2	36.2	85	32.1	0	2	90	0.00	30.334 
23:30	36.2	36.2	36.2	85	32.1	0	1	90	0.00	30.338 
23:35	36.3	36.3	36.3	85	32.2	0	1	90	0.00	30.338 
23:40	36.3	36.3	36.3	85	32.2	1	2	90	0.00	30.338 
23:45	36.5	36.5	36.5	84	32.1	1	2	90	0.00	30.341 
23:50	36.6	36.6	36.6	84	32.2	1	2	90	0.00	30.341 
23:55	36.5	36.5	36.5	84	32.1	1	2	90	0.00	30.341 

CoCoRaHS
IN-AL-39
A2 Web Hosting
Creative Commons License
GoDaddy
Look for:

loaded 2017-12-11 14:11:16 • last modified 2010-11-18 10:43:29
Privacy PolicyDisclaimer
• wx.awcolley.com is powered by PmWiki v.2002016 •
• all content (unless otherwise noted) © 2017 A W Colley